Time;durP1;ratioP1;P1;durP2;ratioP2;P2;SDS_P1;SDS_P2;PMS_P1;PMS_P2;Temp;Humidity;BMP_temperature;BMP_pressure;BME280_temperature;BME280_humidity;BME280_pressure;Samples;Min_cycle;Max_cycle;Signal;HPM_P1;HPM_P2
2023/11/21 00:01:40;;;;;;;2.78;2.50;;;9.60;99.90;;;;;;4978314;28;20087;-66
2023/11/21 00:04:07;;;;;;;7.80;3.15;;;9.60;99.90;;;;;;4979090;28;20023;-65
2023/11/21 00:06:33;;;;;;;6.28;2.80;;;9.60;99.90;;;;;;4977720;28;20041;-65
2023/11/21 00:08:58;;;;;;;7.25;2.50;;;9.60;99.90;;;;;;4979256;28;20476;-63
2023/11/21 00:11:25;;;;;;;7.88;2.97;;;9.60;99.90;;;;;;4977456;28;20133;-61
2023/11/21 00:13:50;;;;;;;7.63;3.15;;;9.60;99.90;;;;;;4969832;28;20106;-64
2023/11/21 00:16:16;;;;;;;5.97;2.42;;;9.60;99.90;;;;;;4969448;28;20102;-59
2023/11/21 00:18:42;;;;;;;4.10;3.33;;;9.60;99.90;;;;;;4975628;28;20034;-66
2023/11/21 00:21:09;;;;;;;5.53;2.85;;;9.60;99.90;;;;;;4988929;28;20549;-59
2023/11/21 00:23:35;;;;;;;6.43;2.88;;;9.60;99.90;;;;;;4988729;28;20035;-61
2023/11/21 00:26:00;;;;;;;8.02;2.88;;;9.60;99.90;;;;;;4987217;28;20416;-60
2023/11/21 00:28:26;;;;;;;6.00;2.63;;;9.60;99.90;;;;;;4988802;28;20034;-62
2023/11/21 00:30:52;;;;;;;6.18;2.67;;;9.60;99.90;;;;;;4989092;28;20034;-64
2023/11/21 00:33:17;;;;;;;12.15;3.45;;;9.60;99.90;;;;;;4988426;28;20023;-65
2023/11/21 00:35:43;;;;;;;10.48;3.30;;;9.50;99.90;;;;;;4987751;28;20030;-59
2023/11/21 00:38:08;;;;;;;5.95;2.97;;;9.50;99.90;;;;;;4981897;28;20537;-60
2023/11/21 00:40:34;;;;;;;8.80;3.10;;;9.50;99.90;;;;;;4980915;28;20043;-59
2023/11/21 00:42:59;;;;;;;3.78;2.63;;;9.50;99.90;;;;;;4970579;28;20030;-62
2023/11/21 00:45:25;;;;;;;8.25;3.00;;;9.50;99.90;;;;;;4985900;28;20288;-66
2023/11/21 00:47:51;;;;;;;6.95;3.65;;;9.50;99.90;;;;;;4970941;28;20030;-56
2023/11/21 00:50:16;;;;;;;6.63;3.50;;;9.60;99.90;;;;;;4985038;28;20034;-51
2023/11/21 00:52:42;;;;;;;8.93;3.28;;;9.50;99.90;;;;;;4985858;28;20433;-60
2023/11/21 00:55:08;;;;;;;9.55;4.35;;;9.50;99.90;;;;;;4988393;28;20027;-55
2023/11/21 00:57:34;;;;;;;7.57;4.90;;;9.50;99.90;;;;;;4988802;28;20022;-55
2023/11/21 01:00:00;;;;;;;16.58;8.35;;;9.50;99.90;;;;;;4988843;28;20035;-48
2023/11/21 01:02:25;;;;;;;6.25;3.83;;;9.50;99.90;;;;;;4988787;28;20160;-48
2023/11/21 01:04:51;;;;;;;7.82;3.10;;;9.50;99.90;;;;;;4988779;28;20095;-46
2023/11/21 01:07:20;;;;;;;9.38;3.30;;;9.50;99.90;;;;;;4989151;28;20030;-49
2023/11/21 01:09:46;;;;;;;8.02;3.00;;;9.50;99.90;;;;;;4988773;28;20026;-46
2023/11/21 01:12:11;;;;;;;7.25;3.55;;;9.60;99.90;;;;;;4983747;28;20041;-50
2023/11/21 01:14:37;;;;;;;6.63;3.50;;;9.50;99.90;;;;;;4966943;28;20031;-50
2023/11/21 01:17:04;;;;;;;11.95;3.97;;;9.50;99.90;;;;;;4967033;28;20042;-51
2023/11/21 01:19:30;;;;;;;8.13;4.90;;;9.60;99.90;;;;;;4985562;28;20026;-50
2023/11/21 01:21:56;;;;;;;7.07;4.18;;;9.60;99.90;;;;;;4980988;28;20062;-46
2023/11/21 01:24:22;;;;;;;4.43;3.40;;;9.60;99.90;;;;;;4985848;28;20030;-47
2023/11/21 01:26:47;;;;;;;11.95;3.70;;;9.60;99.90;;;;;;4985236;28;20107;-48
2023/11/21 01:29:13;;;;;;;9.32;4.53;;;9.60;99.90;;;;;;4985485;28;20378;-50
2023/11/21 01:31:39;;;;;;;8.38;3.90;;;9.50;99.90;;;;;;4985429;28;20045;-46
2023/11/21 01:34:04;;;;;;;6.97;4.63;;;9.60;99.90;;;;;;4985158;28;20068;-47
2023/11/21 01:36:32;;;;;;;7.68;4.07;;;9.60;99.90;;;;;;4989003;28;20030;-49
2023/11/21 01:38:59;;;;;;;12.38;4.80;;;9.50;99.90;;;;;;4987728;28;20115;-44
2023/11/21 01:41:27;;;;;;;11.07;4.50;;;9.50;99.90;;;;;;4989347;28;20068;-47
2023/11/21 01:43:53;;;;;;;10.52;5.50;;;9.50;99.90;;;;;;4984909;28;20022;-50
2023/11/21 01:46:20;;;;;;;9.48;4.63;;;9.50;99.90;;;;;;4991986;28;20054;-46
2023/11/21 01:48:46;;;;;;;7.78;4.32;;;9.50;99.90;;;;;;4992021;28;20030;-46
2023/11/21 01:51:12;;;;;;;11.45;5.15;;;9.50;99.90;;;;;;4990127;28;20394;-45
2023/11/21 01:53:39;;;;;;;7.85;4.55;;;9.50;99.90;;;;;;4980658;28;20034;-46
2023/11/21 01:56:07;;;;;;;11.73;4.47;;;9.50;99.90;;;;;;4972488;28;20026;-51
2023/11/21 01:58:33;;;;;;;12.27;5.10;;;9.50;99.90;;;;;;4972516;28;20023;-52
2023/11/21 02:00:58;;;;;;;14.85;5.75;;;9.50;99.90;;;;;;4972356;28;20076;-46
2023/11/21 02:03:26;;;;;;;9.27;5.13;;;9.60;99.90;;;;;;4972238;28;20560;-47
2023/11/21 02:05:53;;;;;;;10.18;5.22;;;9.60;99.90;;;;;;4972271;28;20034;-49
2023/11/21 02:08:19;;;;;;;8.32;4.38;;;9.60;99.90;;;;;;4972252;28;20356;-51
2023/11/21 02:10:45;;;;;;;13.60;5.75;;;9.50;99.90;;;;;;4972449;28;20026;-47
2023/11/21 02:13:11;;;;;;;12.90;5.55;;;9.50;99.90;;;;;;4971970;28;20023;-49
2023/11/21 02:15:38;;;;;;;10.43;4.35;;;9.60;99.90;;;;;;4971621;28;20478;-44
2023/11/21 02:18:05;;;;;;;25.92;14.18;;;9.60;99.90;;;;;;4970747;28;20027;-48
2023/11/21 02:20:34;;;;;;;8.35;4.43;;;9.60;99.90;;;;;;4970750;28;20034;-47
2023/11/21 02:23:01;;;;;;;11.07;5.13;;;9.60;99.90;;;;;;4971742;28;20031;-50
2023/11/21 02:25:28;;;;;;;9.82;4.60;;;9.70;99.90;;;;;;4972241;28;20109;-48
2023/11/21 02:27:55;;;;;;;5.55;4.03;;;9.70;99.90;;;;;;4972075;28;20464;-49
2023/11/21 02:30:25;;;;;;;9.73;4.60;;;9.70;99.90;;;;;;4972015;28;20061;-44
2023/11/21 02:32:54;;;;;;;9.77;4.40;;;9.70;99.90;;;;;;4971675;28;20015;-48
2023/11/21 02:35:25;;;;;;;9.38;4.35;;;9.70;99.90;;;;;;4972020;28;20031;-52
2023/11/21 02:37:51;;;;;;;9.88;5.00;;;9.70;99.90;;;;;;4971945;28;20026;-52
2023/11/21 02:40:17;;;;;;;10.15;4.00;;;9.70;99.90;;;;;;4972029;28;20390;-51
2023/11/21 02:42:44;;;;;;;10.52;4.60;;;9.80;99.90;;;;;;4972045;28;20046;-49
2023/11/21 02:45:12;;;;;;;13.40;5.35;;;9.80;99.90;;;;;;4972084;28;20026;-48
2023/11/21 02:47:39;;;;;;;8.05;4.00;;;9.80;99.90;;;;;;4971407;28;20101;-52
2023/11/21 02:50:07;;;;;;;8.38;4.97;;;9.90;99.90;;;;;;4970980;28;20486;-54
2023/11/21 02:52:33;;;;;;;8.02;4.00;;;9.90;99.90;;;;;;4971465;28;20045;-46
2023/11/21 02:54:59;;;;;;;5.78;4.50;;;9.90;99.90;;;;;;4971715;28;20106;-51
2023/11/21 02:57:24;;;;;;;15.88;4.22;;;9.90;99.90;;;;;;4970727;28;20079;-50
2023/11/21 02:59:50;;;;;;;10.73;4.57;;;9.90;99.90;;;;;;4971974;28;20034;-51
2023/11/21 03:02:16;;;;;;;5.25;3.78;;;10.00;99.90;;;;;;4971430;28;20034;-48
2023/11/21 03:04:42;;;;;;;10.43;5.38;;;10.00;99.90;;;;;;4971592;28;20144;-49
2023/11/21 03:07:09;;;;;;;7.55;4.93;;;10.00;99.90;;;;;;4971395;28;20383;-46
2023/11/21 03:09:34;;;;;;;8.30;4.80;;;10.00;99.90;;;;;;4971732;28;20549;-49
2023/11/21 03:12:00;;;;;;;7.35;4.55;;;10.00;99.90;;;;;;4971329;28;20177;-46
2023/11/21 03:14:26;;;;;;;7.55;4.78;;;10.00;99.90;;;;;;4970379;28;20102;-47
2023/11/21 03:16:51;;;;;;;11.02;5.70;;;10.00;99.90;;;;;;4971480;28;20447;-50
2023/11/21 03:19:17;;;;;;;9.60;5.10;;;10.10;99.90;;;;;;4971466;28;20509;-47
2023/11/21 03:21:42;;;;;;;7.75;4.72;;;10.10;99.90;;;;;;4969734;28;20490;-47
2023/11/21 03:24:08;;;;;;;7.47;4.85;;;10.10;99.90;;;;;;4970390;28;20114;-51
2023/11/21 03:26:33;;;;;;;10.38;5.50;;;10.00;99.90;;;;;;4971191;28;20031;-47
2023/11/21 03:28:59;;;;;;;8.48;5.75;;;10.10;99.90;;;;;;4971264;28;20027;-50
2023/11/21 03:31:25;;;;;;;10.85;6.22;;;10.00;99.90;;;;;;4970852;28;20022;-50
2023/11/21 03:33:50;;;;;;;8.88;6.57;;;10.10;99.90;;;;;;4971189;28;20030;-51
2023/11/21 03:36:18;;;;;;;10.68;5.85;;;10.00;99.90;;;;;;4970963;28;20084;-53
2023/11/21 03:38:43;;;;;;;9.13;5.93;;;10.00;99.90;;;;;;4971080;28;20023;-53
2023/11/21 03:41:11;;;;;;;11.98;6.70;;;10.00;99.90;;;;;;4971075;28;20035;-52
2023/11/21 03:43:37;;;;;;;9.55;6.80;;;10.00;99.90;;;;;;4971158;28;20069;-51
2023/11/21 03:46:03;;;;;;;9.88;6.00;;;10.00;99.90;;;;;;4970855;28;20058;-50
2023/11/21 03:48:29;;;;;;;7.05;5.47;;;10.00;99.90;;;;;;4970839;28;20028;-48
2023/11/21 03:50:57;;;;;;;15.50;7.20;;;10.00;99.90;;;;;;4971080;28;20027;-53
2023/11/21 03:53:23;;;;;;;8.15;6.50;;;10.00;99.90;;;;;;4970700;28;20035;-53
2023/11/21 03:55:49;;;;;;;10.80;6.40;;;10.10;99.90;;;;;;4970864;28;20031;-51
2023/11/21 03:58:14;;;;;;;12.93;7.25;;;10.10;99.90;;;;;;4970175;28;20081;-50
2023/11/21 04:00:40;;;;;;;9.40;5.97;;;10.20;99.90;;;;;;4970779;28;20486;-49
2023/11/21 04:03:05;;;;;;;9.55;6.95;;;10.20;99.90;;;;;;4970765;28;20027;-50
2023/11/21 04:05:31;;;;;;;6.88;5.95;;;10.20;99.90;;;;;;4969497;28;20498;-50
2023/11/21 04:07:57;;;;;;;7.28;5.88;;;10.10;99.90;;;;;;4970560;28;20066;-47
2023/11/21 04:10:22;;;;;;;5.93;5.07;;;10.20;99.90;;;;;;4970770;28;20402;-45
2023/11/21 04:12:48;;;;;;;9.18;5.28;;;10.20;99.90;;;;;;4970727;28;20084;-47
2023/11/21 04:15:14;;;;;;;10.13;5.47;;;10.20;99.90;;;;;;4970600;28;20099;-47
2023/11/21 04:17:40;;;;;;;8.02;4.95;;;10.20;99.90;;;;;;4970438;28;20023;-51
2023/11/21 04:20:09;;;;;;;6.22;5.40;;;10.20;99.90;;;;;;4970451;28;20528;-46
2023/11/21 04:22:36;;;;;;;7.80;5.30;;;10.10;99.90;;;;;;4969165;28;20529;-46
2023/11/21 04:25:02;;;;;;;6.57;5.10;;;10.10;99.90;;;;;;4970535;28;20077;-50
2023/11/21 04:27:28;;;;;;;6.70;5.13;;;10.20;99.90;;;;;;4970343;28;20031;-50
2023/11/21 04:29:53;;;;;;;10.68;6.70;;;10.20;99.90;;;;;;4970349;28;20478;-47
2023/11/21 04:32:19;;;;;;;8.40;6.32;;;10.20;99.90;;;;;;4970080;28;20015;-49
2023/11/21 04:34:45;;;;;;;9.52;7.40;;;10.10;99.90;;;;;;4969030;28;20033;-50
2023/11/21 04:37:10;;;;;;;12.60;7.75;;;10.10;99.90;;;;;;4969027;28;20029;-48
2023/11/21 04:39:36;;;;;;;14.05;7.93;;;10.10;99.90;;;;;;4970260;28;20018;-46
2023/11/21 04:42:02;;;;;;;11.52;9.32;;;10.10;99.90;;;;;;4970092;28;20490;-49
2023/11/21 04:44:27;;;;;;;16.00;9.65;;;10.10;99.90;;;;;;4970118;28;20031;-46
2023/11/21 04:46:53;;;;;;;14.65;8.75;;;10.10;99.90;;;;;;4969980;28;20450;-51
2023/11/21 04:49:18;;;;;;;18.98;8.80;;;10.10;99.90;;;;;;4970035;28;20038;-53
2023/11/21 04:51:44;;;;;;;12.70;8.95;;;10.10;99.90;;;;;;4969792;28;20349;-46
2023/11/21 04:54:10;;;;;;;15.27;8.43;;;10.10;99.90;;;;;;4970139;28;20474;-47
2023/11/21 04:56:35;;;;;;;11.68;8.25;;;10.00;99.90;;;;;;4969936;28;20027;-46
2023/11/21 04:59:01;;;;;;;11.00;7.18;;;9.90;99.90;;;;;;4969966;28;20031;-49
2023/11/21 05:01:27;;;;;;;11.00;6.75;;;9.80;99.90;;;;;;4969497;28;20022;-44
2023/11/21 05:03:52;;;;;;;7.65;5.22;;;9.80;99.90;;;;;;4969580;28;20023;-48
2023/11/21 05:06:18;;;;;;;7.40;4.97;;;9.70;99.90;;;;;;4969643;28;20042;-48
2023/11/21 05:08:43;;;;;;;7.10;5.20;;;9.70;99.90;;;;;;4969280;28;20035;-49
2023/11/21 05:11:10;;;;;;;7.93;5.50;;;9.60;99.90;;;;;;4967726;28;20031;-47
2023/11/21 05:13:36;;;;;;;7.57;5.25;;;9.60;99.90;;;;;;4969394;28;20495;-47
2023/11/21 05:16:07;;;;;;;9.43;5.78;;;9.50;99.90;;;;;;4969556;28;20022;-47
2023/11/21 05:18:32;;;;;;;8.45;5.90;;;9.50;99.90;;;;;;4968360;28;20027;-49
2023/11/21 05:20:58;;;;;;;6.40;5.40;;;9.50;99.90;;;;;;4968412;28;20065;-49
2023/11/21 05:23:23;;;;;;;7.32;4.65;;;9.50;99.90;;;;;;4969275;28;20056;-44
2023/11/21 05:25:49;;;;;;;7.72;4.90;;;9.40;99.90;;;;;;4969749;28;20018;-47
2023/11/21 05:28:14;;;;;;;7.47;5.60;;;9.30;99.90;;;;;;4969296;28;20042;-46
2023/11/21 05:30:40;;;;;;;7.35;5.05;;;9.30;99.90;;;;;;4969210;28;20095;-48
2023/11/21 05:33:06;;;;;;;11.18;5.82;;;9.30;99.90;;;;;;4969198;28;20073;-47
2023/11/21 05:35:31;;;;;;;8.27;5.82;;;9.40;99.90;;;;;;4969544;28;20039;-49
2023/11/21 05:37:57;;;;;;;7.88;5.45;;;9.40;99.90;;;;;;4969164;28;20042;-46
2023/11/21 05:40:29;;;;;;;7.63;5.82;;;9.30;99.90;;;;;;4969376;28;20031;-52
2023/11/21 05:42:55;;;;;;;9.57;6.10;;;9.30;99.90;;;;;;4968934;28;20026;-53
2023/11/21 05:45:21;;;;;;;5.88;5.32;;;9.30;99.90;;;;;;4969256;28;20027;-49
2023/11/21 05:47:47;;;;;;;10.10;5.40;;;9.30;99.90;;;;;;4969339;28;20394;-50
2023/11/21 05:50:17;;;;;;;12.45;5.65;;;9.20;99.90;;;;;;4969335;28;20035;-51
2023/11/21 05:52:44;;;;;;;5.45;4.95;;;9.30;99.90;;;;;;4969008;28;20026;-48
2023/11/21 05:55:10;;;;;;;7.85;5.50;;;9.30;99.90;;;;;;4969518;28;20023;-46
2023/11/21 05:57:37;;;;;;;6.95;4.95;;;9.30;99.90;;;;;;4969067;28;20015;-47
2023/11/21 06:00:11;;;;;;;7.18;5.53;;;9.40;99.90;;;;;;4968961;28;20441;-48
2023/11/21 06:02:40;;;;;;;6.75;5.28;;;9.40;99.90;;;;;;4968794;28;20393;-48
2023/11/21 06:05:10;;;;;;;6.78;4.85;;;9.40;99.90;;;;;;4969053;28;20026;-49
2023/11/21 06:07:36;;;;;;;6.18;4.90;;;9.40;99.90;;;;;;4967537;28;20054;-51
2023/11/21 06:10:06;;;;;;;4.93;4.35;;;9.30;99.90;;;;;;4967789;28;20402;-49
2023/11/21 06:12:35;;;;;;;7.45;5.10;;;9.30;99.90;;;;;;4968454;28;20066;-49
2023/11/21 06:15:05;;;;;;;6.20;5.60;;;9.30;99.90;;;;;;4968806;28;20015;-47
2023/11/21 06:17:36;;;;;;;4.55;4.13;;;9.40;99.90;;;;;;4968915;28;20015;-52
2023/11/21 06:20:09;;;;;;;7.18;4.80;;;9.30;99.90;;;;;;4969092;28;20031;-49
2023/11/21 06:22:39;;;;;;;5.85;5.25;;;9.40;99.90;;;;;;4970609;28;20027;-51
2023/11/21 06:25:05;;;;;;;5.95;5.03;;;9.40;99.90;;;;;;4972153;28;20035;-52
2023/11/21 06:27:45;;;;;;;8.98;6.22;;;9.40;99.90;;;;;;4972245;28;20030;-49
2023/11/21 06:30:11;;;;;;;11.73;6.15;;;9.50;99.90;;;;;;4971970;28;20039;-50
2023/11/21 06:32:39;;;;;;;10.65;6.85;;;9.50;99.90;;;;;;4971945;28;20094;-49
2023/11/21 06:35:05;;;;;;;10.68;7.32;;;9.50;99.90;;;;;;4971042;28;20027;-47
2023/11/21 06:37:32;;;;;;;9.82;6.43;;;9.60;99.90;;;;;;4971905;28;20042;-47
2023/11/21 06:39:59;;;;;;;10.80;7.15;;;9.50;99.90;;;;;;4972011;28;20035;-46
2023/11/21 06:42:25;;;;;;;9.93;7.63;;;9.60;99.90;;;;;;4970116;28;20027;-48
2023/11/21 06:44:51;;;;;;;8.25;6.85;;;9.50;99.90;;;;;;4970785;28;20421;-51
2023/11/21 06:47:17;;;;;;;9.68;6.97;;;9.50;99.90;;;;;;4972018;28;20031;-48
2023/11/21 06:49:43;;;;;;;11.30;8.13;;;9.60;99.90;;;;;;4971901;28;20042;-51
2023/11/21 06:52:09;;;;;;;10.32;7.72;;;9.60;99.90;;;;;;4971737;28;20398;-46
2023/11/21 06:54:36;;;;;;;13.43;8.57;;;9.50;99.90;;;;;;4971905;28;20035;-48
2023/11/21 06:57:02;;;;;;;10.50;8.65;;;9.60;99.90;;;;;;4971569;28;20031;-50
2023/11/21 06:59:31;;;;;;;15.82;8.63;;;9.60;99.90;;;;;;4971724;28;20026;-45
2023/11/21 07:01:57;;;;;;;10.98;8.70;;;9.60;99.90;;;;;;4971647;28;20418;-48
2023/11/21 07:04:22;;;;;;;14.90;9.95;;;9.60;99.90;;;;;;4971645;28;20027;-52
2023/11/21 07:06:48;;;;;;;12.68;9.15;;;9.60;99.90;;;;;;4971569;28;20053;-51
2023/11/21 07:09:13;;;;;;;12.18;9.05;;;9.50;99.90;;;;;;4971542;28;20034;-52
2023/11/21 07:11:39;;;;;;;16.42;9.82;;;9.50;99.90;;;;;;4971214;28;20027;-45
2023/11/21 07:14:08;;;;;;;14.20;10.00;;;9.60;99.90;;;;;;4971256;28;20031;-45
2023/11/21 07:16:37;;;;;;;16.55;10.50;;;9.50;99.90;;;;;;4971351;28;20393;-50
2023/11/21 07:19:06;;;;;;;15.38;10.30;;;9.50;99.90;;;;;;4971214;28;20412;-49
2023/11/21 07:21:32;;;;;;;16.52;11.48;;;9.50;99.90;;;;;;4971165;28;20121;-47
2023/11/21 07:23:58;;;;;;;16.15;9.95;;;9.40;99.90;;;;;;4971626;28;20683;-47
2023/11/21 07:26:24;;;;;;;15.38;10.63;;;9.40;99.90;;;;;;4971483;28;20039;-47
2023/11/21 07:28:50;;;;;;;16.98;11.07;;;9.40;99.90;;;;;;4971553;28;20027;-51
2023/11/21 07:31:15;;;;;;;20.77;11.38;;;9.40;99.90;;;;;;4970878;28;20053;-45
2023/11/21 07:33:41;;;;;;;17.42;10.43;;;9.40;99.90;;;;;;4970040;28;20035;-48
2023/11/21 07:36:07;;;;;;;15.90;9.98;;;9.30;99.90;;;;;;4971384;28;20050;-49
2023/11/21 07:38:33;;;;;;;16.80;10.50;;;9.40;99.90;;;;;;4971318;28;20447;-49
2023/11/21 07:41:01;;;;;;;14.43;9.13;;;9.40;99.90;;;;;;4971060;28;20140;-45
2023/11/21 07:43:26;;;;;;;19.92;9.30;;;9.40;99.90;;;;;;4970984;28;20030;-50
2023/11/21 07:45:52;;;;;;;13.63;9.63;;;9.40;99.90;;;;;;4971022;28;20031;-51
2023/11/21 07:48:17;;;;;;;10.18;7.32;;;9.40;99.90;;;;;;4970425;28;20026;-48
2023/11/21 07:50:43;;;;;;;15.48;10.00;;;9.40;99.90;;;;;;4970539;28;20026;-48
2023/11/21 07:53:09;;;;;;;14.10;9.50;;;9.40;99.90;;;;;;4970502;28;20035;-47
2023/11/21 07:55:36;;;;;;;17.77;8.77;;;9.40;99.90;;;;;;4970780;28;20106;-50
2023/11/21 07:58:01;;;;;;;13.80;9.32;;;9.50;99.90;;;;;;4970831;28;20031;-52
2023/11/21 08:00:30;;;;;;;10.18;7.95;;;9.50;99.90;;;;;;4969267;28;20038;-52
2023/11/21 08:02:55;;;;;;;13.55;7.97;;;9.50;99.90;;;;;;4970365;28;20030;-48
2023/11/21 08:05:21;;;;;;;12.38;6.45;;;9.50;99.90;;;;;;4970542;28;20549;-50
2023/11/21 08:07:46;;;;;;;14.70;7.53;;;9.60;99.90;;;;;;4970441;28;20034;-51
2023/11/21 08:10:12;;;;;;;12.02;7.38;;;9.60;99.90;;;;;;4970523;28;20038;-49
2023/11/21 08:12:38;;;;;;;11.18;7.85;;;9.70;99.90;;;;;;4970226;28;20026;-48
2023/11/21 08:15:05;;;;;;;7.75;5.75;;;9.80;99.90;;;;;;4970748;28;20030;-47
2023/11/21 08:17:32;;;;;;;9.82;5.40;;;9.70;99.90;;;;;;4970309;28;20019;-49
2023/11/21 08:19:58;;;;;;;7.40;5.82;;;9.70;99.90;;;;;;4969237;28;20053;-50
2023/11/21 08:22:24;;;;;;;8.30;6.50;;;9.80;99.90;;;;;;4970323;28;20294;-46
2023/11/21 08:24:50;;;;;;;7.35;5.93;;;9.80;99.90;;;;;;4970928;28;20451;-50
2023/11/21 08:27:16;;;;;;;11.63;6.32;;;9.90;99.90;;;;;;4970378;28;20034;-50
2023/11/21 08:29:42;;;;;;;7.47;5.90;;;9.90;99.90;;;;;;4970498;28;20401;-49
2023/11/21 08:32:07;;;;;;;8.75;5.30;;;9.80;99.90;;;;;;4968831;28;20508;-51
2023/11/21 08:34:33;;;;;;;6.50;4.65;;;9.80;99.90;;;;;;4969525;28;20051;-52
2023/11/21 08:36:59;;;;;;;7.70;5.28;;;9.80;99.90;;;;;;4970283;28;20156;-51
2023/11/21 08:39:24;;;;;;;9.02;6.00;;;9.80;99.90;;;;;;4969230;28;20035;-48
2023/11/21 08:41:50;;;;;;;6.82;5.50;;;9.80;99.90;;;;;;4970505;28;20434;-51
2023/11/21 08:44:17;;;;;;;8.25;5.32;;;9.90;99.90;;;;;;4970470;28;20026;-48
2023/11/21 08:46:46;;;;;;;6.97;5.97;;;9.90;99.90;;;;;;4970108;28;20023;-52
2023/11/21 08:49:12;;;;;;;9.32;5.38;;;10.00;99.90;;;;;;4969289;28;20031;-51
2023/11/21 08:51:38;;;;;;;9.52;5.97;;;10.00;99.90;;;;;;4969791;28;20502;-51
2023/11/21 08:54:07;;;;;;;10.52;5.65;;;10.00;99.90;;;;;;4970369;28;20023;-52
2023/11/21 08:56:36;;;;;;;6.57;5.68;;;10.10;99.90;;;;;;4970208;28;20487;-54
2023/11/21 08:59:02;;;;;;;6.22;4.85;;;10.10;99.90;;;;;;4984645;28;20539;-54
2023/11/21 09:01:31;;;;;;;7.13;5.05;;;10.10;99.90;;;;;;4987975;28;20030;-57
2023/11/21 09:03:59;;;;;;;6.10;4.55;;;10.10;99.90;;;;;;4988137;28;20409;-55
2023/11/21 09:06:25;;;;;;;7.28;4.75;;;10.00;99.90;;;;;;4987997;28;20450;-53
2023/11/21 09:08:50;;;;;;;9.07;5.50;;;9.90;99.90;;;;;;4988880;28;20119;-55
2023/11/21 09:11:16;;;;;;;6.22;4.85;;;10.00;99.90;;;;;;4988220;28;20054;-59
2023/11/21 09:13:42;;;;;;;7.38;5.15;;;9.90;99.90;;;;;;4987844;28;20031;-61
2023/11/21 09:16:08;;;;;;;7.97;5.07;;;9.90;99.90;;;;;;4988684;28;20037;-52
2023/11/21 09:18:34;;;;;;;5.45;4.30;;;9.90;99.90;;;;;;4987130;28;20034;-57
2023/11/21 09:20:59;;;;;;;6.68;4.38;;;10.00;99.90;;;;;;4987657;28;20034;-55
2023/11/21 09:23:25;;;;;;;7.10;5.18;;;10.00;99.90;;;;;;4988712;28;20029;-55
2023/11/21 09:25:51;;;;;;;5.55;4.47;;;10.00;99.90;;;;;;4988993;28;20049;-57
2023/11/21 09:28:17;;;;;;;8.63;5.07;;;10.00;99.90;;;;;;4988955;28;20026;-55
2023/11/21 09:30:43;;;;;;;5.35;3.85;;;10.10;99.90;;;;;;4988923;28;20396;-56
2023/11/21 09:33:10;;;;;;;7.35;4.50;;;10.00;99.90;;;;;;4988544;28;20030;-56
2023/11/21 09:35:38;;;;;;;5.15;3.72;;;9.90;99.90;;;;;;4988938;28;20106;-53
2023/11/21 09:38:05;;;;;;;8.10;4.65;;;10.00;99.90;;;;;;4987389;28;20031;-56
2023/11/21 09:40:31;;;;;;;7.63;4.40;;;10.00;99.90;;;;;;4988787;28;20130;-56
2023/11/21 09:42:58;;;;;;;5.30;4.53;;;9.90;99.90;;;;;;4988665;28;20402;-55
2023/11/21 09:45:28;;;;;;;5.35;4.65;;;9.90;99.90;;;;;;4988720;28;20453;-51
2023/11/21 09:47:58;;;;;;;8.48;3.88;;;9.90;99.90;;;;;;4988703;28;20139;-51
2023/11/21 09:50:24;;;;;;;6.28;3.95;;;9.90;99.90;;;;;;4988768;28;20023;-59
2023/11/21 09:53:21;;;;;;;7.38;4.20;;;9.90;99.90;;;;;;4992398;23;20051;-54
2023/11/21 09:55:48;;;;;;;10.60;5.50;;;9.90;99.90;;;;;;4975154;28;20027;-54
2023/11/21 09:58:14;;;;;;;4.60;4.10;;;10.00;99.90;;;;;;4972503;28;20065;-50
2023/11/21 10:00:42;;;;;;;4.93;3.97;;;10.00;99.90;;;;;;4972654;28;20038;-51
2023/11/21 10:03:09;;;;;;;10.95;4.28;;;10.10;99.90;;;;;;4972787;28;20102;-55
2023/11/21 10:05:35;;;;;;;9.07;5.63;;;10.10;99.90;;;;;;4972274;28;20087;-52
2023/11/21 10:08:01;;;;;;;26.92;5.05;;;10.20;99.90;;;;;;4971679;28;20031;-54
2023/11/21 10:10:29;;;;;;;7.60;4.63;;;10.30;99.90;;;;;;4971894;28;20057;-50
2023/11/21 10:12:56;;;;;;;8.13;4.28;;;10.30;99.90;;;;;;4972366;28;20027;-57
2023/11/21 10:15:25;;;;;;;5.07;3.95;;;10.40;99.90;;;;;;4970416;28;20027;-51
2023/11/21 10:17:53;;;;;;;6.13;4.03;;;10.40;99.90;;;;;;4972991;28;20156;-51
2023/11/21 10:20:24;;;;;;;9.35;3.97;;;10.50;99.90;;;;;;4971287;28;20490;-49
2023/11/21 10:22:50;;;;;;;7.55;4.45;;;10.50;99.90;;;;;;4964069;28;20042;-49
2023/11/21 10:25:16;;;;;;;10.32;4.82;;;10.60;99.90;;;;;;4970256;28;20054;-49
2023/11/21 10:27:42;;;;;;;5.90;4.57;;;10.50;99.90;;;;;;4966299;28;20506;-46
2023/11/21 10:30:12;;;;;;;4.88;3.67;;;10.50;99.90;;;;;;4967052;28;20031;-50
2023/11/21 10:32:40;;;;;;;11.00;4.40;;;10.50;99.90;;;;;;4970107;28;20031;-53
2023/11/21 10:35:09;;;;;;;7.78;4.30;;;10.70;99.90;;;;;;4972365;28;20030;-57
2023/11/21 10:37:43;;;;;;;6.32;4.13;;;10.70;99.90;;;;;;4972005;28;20030;-56
2023/11/21 10:40:13;;;;;;;9.80;4.03;;;10.80;99.90;;;;;;4972254;28;20472;-52
2023/11/21 10:42:40;;;;;;;8.23;4.65;;;10.80;99.90;;;;;;4970626;28;20043;-57
2023/11/21 10:45:12;;;;;;;6.28;4.40;;;10.90;99.90;;;;;;4971935;28;20023;-54
2023/11/21 10:47:43;;;;;;;9.25;4.57;;;10.90;99.90;;;;;;4969481;28;20035;-55
2023/11/21 10:50:11;;;;;;;9.07;4.05;;;11.00;99.90;;;;;;4970238;28;20482;-50
2023/11/21 10:52:47;;;;;;;6.28;4.47;;;11.00;99.90;;;;;;4971397;28;20130;-50
2023/11/21 10:55:21;;;;;;;7.25;4.35;;;11.10;99.90;;;;;;4970985;28;20106;-54
2023/11/21 10:57:49;;;;;;;11.15;4.68;;;11.10;99.90;;;;;;4971705;28;20394;-49
2023/11/21 11:00:16;;;;;;;8.93;4.47;;;11.00;99.90;;;;;;4970547;28;20034;-53
2023/11/21 11:02:42;;;;;;;6.03;3.88;;;11.00;99.90;;;;;;4970238;28;20027;-55
2023/11/21 11:05:11;;;;;;;7.40;3.78;;;11.20;99.90;;;;;;4971772;28;20034;-55
2023/11/21 11:07:40;;;;;;;6.35;3.80;;;11.00;99.90;;;;;;4970735;28;20398;-54
2023/11/21 11:10:08;;;;;;;5.38;3.75;;;11.00;99.90;;;;;;4970740;28;20023;-55
2023/11/21 11:12:34;;;;;;;10.80;5.05;;;11.00;99.90;;;;;;4971063;28;20371;-51
2023/11/21 11:15:02;;;;;;;6.22;4.13;;;11.00;99.90;;;;;;4971514;28;20114;-54
2023/11/21 11:17:28;;;;;;;7.45;3.63;;;10.80;99.90;;;;;;4971610;28;20019;-51
2023/11/21 11:19:53;;;;;;;10.02;4.35;;;10.70;99.90;;;;;;4969931;28;20494;-56
2023/11/21 11:22:43;;;;;;;10.98;4.40;;;10.70;99.90;;;;;;4971232;28;20030;-57
2023/11/21 11:25:35;;;;;;;5.05;3.25;;;10.70;99.90;;;;;;4971128;28;20031;-57
2023/11/21 11:28:33;;;;;;;9.85;3.95;;;10.80;99.90;;;;;;4963769;28;20384;-56
2023/11/21 11:31:05;;;;;;;7.38;3.83;;;11.00;99.90;;;;;;4962177;28;20508;-57
2023/11/21 11:33:53;;;;;;;4.80;2.95;;;11.10;99.90;;;;;;4971017;28;20050;-57
2023/11/21 11:36:31;;;;;;;6.32;3.50;;;11.20;99.90;;;;;;4965192;28;20034;-59
2023/11/21 11:38:57;;;;;;;8.63;3.03;;;11.30;99.90;;;;;;4970703;28;20023;-53
2023/11/21 11:41:32;;;;;;;12.70;4.82;;;11.40;99.90;;;;;;4971346;28;20490;-53
2023/11/21 11:43:58;;;;;;;7.07;3.05;;;11.50;99.90;;;;;;4970928;28;20448;-54
2023/11/21 11:46:45;;;;;;;8.68;3.40;;;11.60;99.90;;;;;;4970726;28;20031;-57
2023/11/21 11:49:25;;;;;;;7.45;3.22;;;11.70;99.90;;;;;;4970973;28;20030;-56
2023/11/21 11:52:29;;;;;;;7.15;3.20;;;11.80;99.90;;;;;;4970798;28;20130;-55
2023/11/21 11:54:55;;;;;;;8.68;3.63;;;11.80;99.90;;;;;;4970682;28;20034;-56
2023/11/21 11:57:24;;;;;;;13.70;4.38;;;11.90;99.90;;;;;;4970830;28;20049;-57
2023/11/21 12:00:11;;;;;;;9.55;3.63;;;12.10;99.90;;;;;;4970798;28;20042;-58
2023/11/21 12:02:40;;;;;;;8.40;3.42;;;12.20;99.90;;;;;;4970735;28;20023;-58
2023/11/21 12:05:10;;;;;;;6.68;3.35;;;12.20;99.90;;;;;;4970909;28;20053;-55
2023/11/21 12:07:48;;;;;;;6.20;4.30;;;12.30;99.90;;;;;;4970776;28;20046;-58
2023/11/21 12:10:18;;;;;;;7.28;3.97;;;12.40;99.90;;;;;;4971037;28;20101;-55
2023/11/21 12:12:49;;;;;;;8.63;3.60;;;12.50;99.90;;;;;;4965202;28;20041;-57
2023/11/21 12:15:15;;;;;;;7.28;3.75;;;12.40;99.90;;;;;;4965689;28;20498;-59
2023/11/21 12:17:43;;;;;;;6.43;3.67;;;12.30;99.90;;;;;;4966047;28;20034;-55
2023/11/21 12:20:15;;;;;;;4.93;3.35;;;12.30;99.90;;;;;;4954057;28;20062;-58
2023/11/21 12:22:48;;;;;;;5.65;3.10;;;12.40;99.90;;;;;;4959368;28;20023;-55
2023/11/21 12:25:16;;;;;;;9.10;3.45;;;12.30;99.90;;;;;;4951497;28;20031;-56
2023/11/21 12:27:43;;;;;;;7.38;3.45;;;12.30;99.90;;;;;;4950775;28;20034;-57
2023/11/21 12:30:13;;;;;;;5.80;3.35;;;12.30;99.90;;;;;;4951069;28;20556;-56
2023/11/21 12:32:40;;;;;;;4.47;3.30;;;12.30;99.90;;;;;;4966102;28;20470;-58
2023/11/21 12:35:07;;;;;;;8.27;3.63;;;12.20;99.90;;;;;;4970288;28;20030;-58
2023/11/21 12:37:33;;;;;;;7.65;3.75;;;12.20;99.90;;;;;;4955727;28;20387;-54
2023/11/21 12:39:59;;;;;;;7.00;2.92;;;12.30;99.90;;;;;;4956483;28;20026;-58
2023/11/21 12:42:25;;;;;;;12.95;3.63;;;12.30;99.90;;;;;;4968701;28;20026;-59
2023/11/21 12:45:18;;;;;;;6.07;3.15;;;12.40;99.90;;;;;;4955080;28;20106;-57
2023/11/21 12:47:44;;;;;;;3.38;3.00;;;12.30;99.90;;;;;;4951046;28;20035;-53
2023/11/21 12:50:16;;;;;;;7.00;2.85;;;12.30;99.90;;;;;;4962533;28;20033;-55